KSPS

Sheppard AFB / Wichita Falls Municipal Airport

Wichita Falls, Texas, USA
KSPS 200520Z 2006/2106 26005KT P6SM SKC FM202100 17012KT P6SM SKC
Issued Valid From Valid To
Jan-20 @ 05:20 UTC
(6 hours ago)
Jan-20 @ 06:00 UTC
(5 hours ago)
Jan-21 @ 06:00 UTC
(in 19 hours)
Jan-20 @ 06:00 to Jan-20 @ 21:00
KSPS 200520Z 2006/2106 26005KT P6SM SKC
Wind Visibility Clouds
260° at 5 knots Greater than 6 miles
  • Clear skies
From Jan-20 @ 21:00 to Jan-21 @ 06:00
FM202100 17012KT P6SM SKC
Wind Visibility Clouds
170° at 12 knots Greater than 6 miles
  • Clear skies
KSPS 200520Z 2006/2106 26005KT P6SM SKC FM202100 17012KT P6SM SKC
Issued Jan-20 @ 05:20 UTC
(6 hours ago)
Valid From Jan-20 @ 06:00 UTC
(5 hours ago)
Valid To Jan-21 @ 06:00 UTC
(in 19 hours)
Jan-20 @ 06:00 - Jan-20 @ 21:00
Wind Visibility
260° at 5 knots Greater than 6 miles
Clouds
  • Clear skies
From Jan-20 @ 21:00 - Jan-21 @ 06:00
Wind Visibility
170° at 12 knots Greater than 6 miles
Clouds
  • Clear skies